sensor_id;sensor_type;location;lat;lon;timestamp;temperature;humidity
21085;DHT22;34247;50.064;19.970;2023-02-08T00:00:47;16.80;25.80
21085;DHT22;34247;50.064;19.970;2023-02-08T00:01:55;16.90;25.90
21085;DHT22;34247;50.064;19.970;2023-02-08T00:02:59;16.90;25.80
21085;DHT22;34247;50.064;19.970;2023-02-08T00:04:04;16.90;25.80
21085;DHT22;34247;50.064;19.970;2023-02-08T00:05:17;16.90;25.80
21085;DHT22;34247;50.064;19.970;2023-02-08T00:06:23;16.80;25.80
21085;DHT22;34247;50.064;19.970;2023-02-08T00:07:28;16.90;25.90
21085;DHT22;34247;50.064;19.970;2023-02-08T00:08:35;16.80;25.80
21085;DHT22;34247;50.064;19.970;2023-02-08T00:09:44;16.80;25.80
21085;DHT22;34247;50.064;19.970;2023-02-08T00:10:51;16.80;25.80
21085;DHT22;34247;50.064;19.970;2023-02-08T00:11:56;16.80;25.80
21085;DHT22;34247;50.064;19.970;2023-02-08T00:13:01;16.80;25.80
21085;DHT22;34247;50.064;19.970;2023-02-08T00:14:12;16.80;25.80
21085;DHT22;34247;50.064;19.970;2023-02-08T00:15:18;16.80;25.90
21085;DHT22;34247;50.064;19.970;2023-02-08T00:16:26;16.80;25.90
21085;DHT22;34247;50.064;19.970;2023-02-08T00:17:31;16.80;25.90
21085;DHT22;34247;50.064;19.970;2023-02-08T00:18:36;16.80;25.90
21085;DHT22;34247;50.064;19.970;2023-02-08T00:19:41;16.80;25.90
21085;DHT22;34247;50.064;19.970;2023-02-08T00:20:47;16.90;25.90
21085;DHT22;34247;50.064;19.970;2023-02-08T00:21:52;16.80;25.80
21085;DHT22;34247;50.064;19.970;2023-02-08T00:23:01;16.80;25.80
21085;DHT22;34247;50.064;19.970;2023-02-08T00:24:13;16.80;25.80
21085;DHT22;34247;50.064;19.970;2023-02-08T00:25:26;16.80;25.80
21085;DHT22;34247;50.064;19.970;2023-02-08T00:26:32;16.80;25.90
21085;DHT22;34247;50.064;19.970;2023-02-08T00:27:45;16.90;25.90
21085;DHT22;34247;50.064;19.970;2023-02-08T00:28:50;16.90;26.10
21085;DHT22;34247;50.064;19.970;2023-02-08T00:29:55;16.90;25.90
21085;DHT22;34247;50.064;19.970;2023-02-08T00:31:03;16.90;25.80
21085;DHT22;34247;50.064;19.970;2023-02-08T00:32:12;16.90;25.80
21085;DHT22;34247;50.064;19.970;2023-02-08T00:33:18;16.90;25.80
21085;DHT22;34247;50.064;19.970;2023-02-08T00:34:22;16.90;25.80
21085;DHT22;34247;50.064;19.970;2023-02-08T00:35:28;16.90;25.80
21085;DHT22;34247;50.064;19.970;2023-02-08T00:36:35;16.90;25.80
21085;DHT22;34247;50.064;19.970;2023-02-08T00:37:42;16.90;25.80
21085;DHT22;34247;50.064;19.970;2023-02-08T00:38:51;16.90;25.80
21085;DHT22;34247;50.064;19.970;2023-02-08T00:39:57;16.90;25.80
21085;DHT22;34247;50.064;19.970;2023-02-08T00:41:30;16.80;25.80
21085;DHT22;34247;50.064;19.970;2023-02-08T00:42:55;16.90;25.90
21085;DHT22;34247;50.064;19.970;2023-02-08T00:44:08;16.90;25.90
21085;DHT22;34247;50.064;19.970;2023-02-08T00:45:23;16.90;25.90
21085;DHT22;34247;50.064;19.970;2023-02-08T00:46:28;16.90;25.90
21085;DHT22;34247;50.064;19.970;2023-02-08T00:47:39;16.90;25.90
21085;DHT22;34247;50.064;19.970;2023-02-08T00:49:13;16.90;25.90
21085;DHT22;34247;50.064;19.970;2023-02-08T00:50:39;16.90;25.90
21085;DHT22;34247;50.064;19.970;2023-02-08T00:51:48;16.90;25.90
21085;DHT22;34247;50.064;19.970;2023-02-08T00:52:53;16.90;25.80
21085;DHT22;34247;50.064;19.970;2023-02-08T00:53:58;16.90;25.90
21085;DHT22;34247;50.064;19.970;2023-02-08T00:55:04;16.90;25.90
21085;DHT22;34247;50.064;19.970;2023-02-08T00:56:15;16.90;25.90
21085;DHT22;34247;50.064;19.970;2023-02-08T00:57:21;16.90;25.90
21085;DHT22;34247;50.064;19.970;2023-02-08T00:58:32;16.90;25.90
21085;DHT22;34247;50.064;19.970;2023-02-08T00:59:38;16.90;25.90
21085;DHT22;34247;50.064;19.970;2023-02-08T01:00:45;16.90;25.80
21085;DHT22;34247;50.064;19.970;2023-02-08T01:01:49;16.90;25.80
21085;DHT22;34247;50.064;19.970;2023-02-08T01:02:56;16.90;25.80
21085;DHT22;34247;50.064;19.970;2023-02-08T01:04:02;17.00;25.90
21085;DHT22;34247;50.064;19.970;2023-02-08T01:05:18;17.00;25.90
21085;DHT22;34247;50.064;19.970;2023-02-08T01:06:23;17.00;25.90
21085;DHT22;34247;50.064;19.970;2023-02-08T01:07:28;17.00;25.80
21085;DHT22;34247;50.064;19.970;2023-02-08T01:08:33;17.00;25.80
21085;DHT22;34247;50.064;19.970;2023-02-08T01:09:38;17.00;25.80
21085;DHT22;34247;50.064;19.970;2023-02-08T01:10:43;17.00;25.80
21085;DHT22;34247;50.064;19.970;2023-02-08T01:11:47;17.00;25.80
21085;DHT22;34247;50.064;19.970;2023-02-08T01:12:52;17.00;25.80
21085;DHT22;34247;50.064;19.970;2023-02-08T01:13:58;17.00;25.80
21085;DHT22;34247;50.064;19.970;2023-02-08T01:15:03;17.00;25.80
21085;DHT22;34247;50.064;19.970;2023-02-08T01:16:18;17.00;25.80
21085;DHT22;34247;50.064;19.970;2023-02-08T01:17:25;17.00;25.80
21085;DHT22;34247;50.064;19.970;2023-02-08T01:18:30;17.00;25.70
21085;DHT22;34247;50.064;19.970;2023-02-08T01:19:35;17.00;25.70
21085;DHT22;34247;50.064;19.970;2023-02-08T01:20:40;17.00;25.80
21085;DHT22;34247;50.064;19.970;2023-02-08T01:21:44;17.00;25.80
21085;DHT22;34247;50.064;19.970;2023-02-08T01:22:51;17.00;25.70
21085;DHT22;34247;50.064;19.970;2023-02-08T01:23:57;17.10;25.80
21085;DHT22;34247;50.064;19.970;2023-02-08T01:25:03;17.10;25.80
21085;DHT22;34247;50.064;19.970;2023-02-08T01:26:17;17.10;25.80
21085;DHT22;34247;50.064;19.970;2023-02-08T01:27:23;17.00;25.70
21085;DHT22;34247;50.064;19.970;2023-02-08T01:28:28;17.00;25.80
21085;DHT22;34247;50.064;19.970;2023-02-08T01:29:33;17.10;25.80
21085;DHT22;34247;50.064;19.970;2023-02-08T01:30:37;17.00;25.80
21085;DHT22;34247;50.064;19.970;2023-02-08T01:31:45;17.10;25.80
21085;DHT22;34247;50.064;19.970;2023-02-08T01:32:51;17.00;25.80
21085;DHT22;34247;50.064;19.970;2023-02-08T01:34:05;17.10;25.80
21085;DHT22;34247;50.064;19.970;2023-02-08T01:35:20;17.10;25.80
21085;DHT22;34247;50.064;19.970;2023-02-08T01:36:27;17.10;25.80
21085;DHT22;34247;50.064;19.970;2023-02-08T01:37:34;17.10;25.80
21085;DHT22;34247;50.064;19.970;2023-02-08T01:38:39;17.10;25.80
21085;DHT22;34247;50.064;19.970;2023-02-08T01:39:48;17.10;25.80
21085;DHT22;34247;50.064;19.970;2023-02-08T01:40:53;17.10;25.70
21085;DHT22;34247;50.064;19.970;2023-02-08T01:41:59;17.10;25.70
21085;DHT22;34247;50.064;19.970;2023-02-08T01:43:29;17.10;25.80
21085;DHT22;34247;50.064;19.970;2023-02-08T01:45:17;17.10;25.80
21085;DHT22;34247;50.064;19.970;2023-02-08T01:46:27;17.10;25.80
21085;DHT22;34247;50.064;19.970;2023-02-08T01:47:36;17.10;25.80
21085;DHT22;34247;50.064;19.970;2023-02-08T01:48:42;17.10;25.80
21085;DHT22;34247;50.064;19.970;2023-02-08T01:49:50;17.10;25.90
21085;DHT22;34247;50.064;19.970;2023-02-08T01:52:27;17.10;25.90
21085;DHT22;34247;50.064;19.970;2023-02-08T01:53:37;17.10;25.80
21085;DHT22;34247;50.064;19.970;2023-02-08T01:54:57;17.10;25.90
21085;DHT22;34247;50.064;19.970;2023-02-08T01:56:28;17.10;25.90
21085;DHT22;34247;50.064;19.970;2023-02-08T02:00:21;17.10;25.90
21085;DHT22;34247;50.064;19.970;2023-02-08T02:01:38;17.10;25.90
21085;DHT22;34247;50.064;19.970;2023-02-08T02:03:14;17.20;25.90
21085;DHT22;34247;50.064;19.970;2023-02-08T02:04:30;17.20;25.90
21085;DHT22;34247;50.064;19.970;2023-02-08T02:05:46;17.20;25.90
21085;DHT22;34247;50.064;19.970;2023-02-08T02:07:28;17.20;25.90
21085;DHT22;34247;50.064;19.970;2023-02-08T02:08:38;17.20;25.90
21085;DHT22;34247;50.064;19.970;2023-02-08T02:12:30;17.20;25.90
21085;DHT22;34247;50.064;19.970;2023-02-08T02:13:41;17.20;25.80
21085;DHT22;34247;50.064;19.970;2023-02-08T02:14:51;17.20;25.80
21085;DHT22;34247;50.064;19.970;2023-02-08T02:16:26;17.20;25.80
21085;DHT22;34247;50.064;19.970;2023-02-08T02:17:38;17.20;25.80
21085;DHT22;34247;50.064;19.970;2023-02-08T02:18:53;17.20;25.80
21085;DHT22;34247;50.064;19.970;2023-02-08T02:20:23;17.20;25.80
21085;DHT22;34247;50.064;19.970;2023-02-08T02:26:52;17.20;25.80
21085;DHT22;34247;50.064;19.970;2023-02-08T02:28:42;17.20;25.90
21085;DHT22;34247;50.064;19.970;2023-02-08T02:32:49;17.20;25.90
21085;DHT22;34247;50.064;19.970;2023-02-08T02:36:34;17.20;25.90
21085;DHT22;34247;50.064;19.970;2023-02-08T02:38:19;17.20;25.90
21085;DHT22;34247;50.064;19.970;2023-02-08T02:48:46;17.20;25.90
21085;DHT22;34247;50.064;19.970;2023-02-08T02:52:14;17.30;25.90
21085;DHT22;34247;50.064;19.970;2023-02-08T02:56:16;17.20;25.90
21085;DHT22;34247;50.064;19.970;2023-02-08T02:57:53;17.30;25.90
21085;DHT22;34247;50.064;19.970;2023-02-08T02:59:12;17.30;26.00
21085;DHT22;34247;50.064;19.970;2023-02-08T03:00:33;17.30;26.00
21085;DHT22;34247;50.064;19.970;2023-02-08T03:01:45;17.30;26.00
21085;DHT22;34247;50.064;19.970;2023-02-08T03:03:01;17.30;26.10
21085;DHT22;34247;50.064;19.970;2023-02-08T03:06:13;17.30;26.10
21085;DHT22;34247;50.064;19.970;2023-02-08T03:09:20;17.30;26.10
21085;DHT22;34247;50.064;19.970;2023-02-08T03:11:19;17.30;26.10
21085;DHT22;34247;50.064;19.970;2023-02-08T03:12:54;17.20;26.20
21085;DHT22;34247;50.064;19.970;2023-02-08T03:14:32;17.30;26.20
21085;DHT22;34247;50.064;19.970;2023-02-08T03:18:03;17.30;26.30
21085;DHT22;34247;50.064;19.970;2023-02-08T03:19:52;17.30;26.30
21085;DHT22;34247;50.064;19.970;2023-02-08T03:23:30;17.30;26.40
21085;DHT22;34247;50.064;19.970;2023-02-08T03:24:58;17.30;26.50
21085;DHT22;34247;50.064;19.970;2023-02-08T03:28:22;17.30;26.40
21085;DHT22;34247;50.064;19.970;2023-02-08T03:29:43;17.30;26.50
21085;DHT22;34247;50.064;19.970;2023-02-08T03:31:40;17.20;27.00
21085;DHT22;34247;50.064;19.970;2023-02-08T03:33:13;17.20;26.50
21085;DHT22;34247;50.064;19.970;2023-02-08T03:36:48;17.20;26.60
21085;DHT22;34247;50.064;19.970;2023-02-08T03:38:50;17.20;26.60
21085;DHT22;34247;50.064;19.970;2023-02-08T03:40:27;17.20;26.60
21085;DHT22;34247;50.064;19.970;2023-02-08T03:41:39;17.20;26.50
21085;DHT22;34247;50.064;19.970;2023-02-08T03:42:50;17.20;26.60
21085;DHT22;34247;50.064;19.970;2023-02-08T03:44:00;17.20;26.60
21085;DHT22;34247;50.064;19.970;2023-02-08T03:45:30;17.20;26.60
21085;DHT22;34247;50.064;19.970;2023-02-08T03:46:43;17.20;26.60
21085;DHT22;34247;50.064;19.970;2023-02-08T03:48:18;17.20;26.60
21085;DHT22;34247;50.064;19.970;2023-02-08T03:49:30;17.20;26.70
21085;DHT22;34247;50.064;19.970;2023-02-08T03:50:42;17.20;26.80
21085;DHT22;34247;50.064;19.970;2023-02-08T03:52:11;17.20;26.70
21085;DHT22;34247;50.064;19.970;2023-02-08T03:53:19;17.20;26.60
21085;DHT22;34247;50.064;19.970;2023-02-08T03:54:27;17.20;26.60
21085;DHT22;34247;50.064;19.970;2023-02-08T03:55:38;17.20;26.60
21085;DHT22;34247;50.064;19.970;2023-02-08T03:57:03;17.20;26.60
21085;DHT22;34247;50.064;19.970;2023-02-08T03:58:47;17.20;26.60
21085;DHT22;34247;50.064;19.970;2023-02-08T04:00:11;17.20;26.80
21085;DHT22;34247;50.064;19.970;2023-02-08T04:01:25;17.20;26.70
21085;DHT22;34247;50.064;19.970;2023-02-08T04:03:16;17.20;26.70
21085;DHT22;34247;50.064;19.970;2023-02-08T04:04:25;17.20;26.70
21085;DHT22;34247;50.064;19.970;2023-02-08T04:05:36;17.20;26.70
21085;DHT22;34247;50.064;19.970;2023-02-08T04:06:44;17.20;26.60
21085;DHT22;34247;50.064;19.970;2023-02-08T04:07:50;17.20;26.60
21085;DHT22;34247;50.064;19.970;2023-02-08T04:08:55;17.20;26.60
21085;DHT22;34247;50.064;19.970;2023-02-08T04:10:03;17.20;26.60
21085;DHT22;34247;50.064;19.970;2023-02-08T04:11:13;17.20;26.60
21085;DHT22;34247;50.064;19.970;2023-02-08T04:12:17;17.20;26.70
21085;DHT22;34247;50.064;19.970;2023-02-08T04:13:24;17.20;26.70
21085;DHT22;34247;50.064;19.970;2023-02-08T04:14:28;17.20;26.70
21085;DHT22;34247;50.064;19.970;2023-02-08T04:15:32;17.20;26.80
21085;DHT22;34247;50.064;19.970;2023-02-08T04:16:37;17.20;26.70
21085;DHT22;34247;50.064;19.970;2023-02-08T04:17:42;17.20;26.80
21085;DHT22;34247;50.064;19.970;2023-02-08T04:18:47;17.10;26.70
21085;DHT22;34247;50.064;19.970;2023-02-08T04:19:52;17.20;26.80
21085;DHT22;34247;50.064;19.970;2023-02-08T04:20:59;17.20;26.80
21085;DHT22;34247;50.064;19.970;2023-02-08T04:22:16;17.20;26.80
21085;DHT22;34247;50.064;19.970;2023-02-08T04:23:23;17.20;26.80
21085;DHT22;34247;50.064;19.970;2023-02-08T04:24:32;17.20;26.80
21085;DHT22;34247;50.064;19.970;2023-02-08T04:26:00;17.20;26.80
21085;DHT22;34247;50.064;19.970;2023-02-08T04:27:29;17.20;26.80
21085;DHT22;34247;50.064;19.970;2023-02-08T04:28:40;17.20;26.80
21085;DHT22;34247;50.064;19.970;2023-02-08T04:29:55;17.20;26.80
21085;DHT22;34247;50.064;19.970;2023-02-08T04:31:35;17.20;26.90
21085;DHT22;34247;50.064;19.970;2023-02-08T04:32:55;17.20;26.90
21085;DHT22;34247;50.064;19.970;2023-02-08T04:34:19;17.20;26.90
21085;DHT22;34247;50.064;19.970;2023-02-08T04:35:29;17.20;26.90
21085;DHT22;34247;50.064;19.970;2023-02-08T04:36:37;17.20;26.90
21085;DHT22;34247;50.064;19.970;2023-02-08T04:38:16;17.30;27.00
21085;DHT22;34247;50.064;19.970;2023-02-08T04:39:25;17.30;27.00
21085;DHT22;34247;50.064;19.970;2023-02-08T04:40:43;17.20;27.00
21085;DHT22;34247;50.064;19.970;2023-02-08T04:41:51;17.30;27.10
21085;DHT22;34247;50.064;19.970;2023-02-08T04:42:59;17.30;27.00
21085;DHT22;34247;50.064;19.970;2023-02-08T04:44:23;17.30;27.00
21085;DHT22;34247;50.064;19.970;2023-02-08T04:45:32;17.30;27.10
21085;DHT22;34247;50.064;19.970;2023-02-08T04:46:40;17.30;27.00
21085;DHT22;34247;50.064;19.970;2023-02-08T04:47:50;17.30;27.10
21085;DHT22;34247;50.064;19.970;2023-02-08T04:48:58;17.30;27.10
21085;DHT22;34247;50.064;19.970;2023-02-08T04:50:16;17.30;27.10
21085;DHT22;34247;50.064;19.970;2023-02-08T04:51:24;17.30;27.10
21085;DHT22;34247;50.064;19.970;2023-02-08T04:52:32;17.30;27.10
21085;DHT22;34247;50.064;19.970;2023-02-08T04:53:39;17.30;27.10
21085;DHT22;34247;50.064;19.970;2023-02-08T04:54:57;17.30;27.10
21085;DHT22;34247;50.064;19.970;2023-02-08T04:56:16;17.30;27.10
21085;DHT22;34247;50.064;19.970;2023-02-08T04:57:27;17.30;27.10
21085;DHT22;34247;50.064;19.970;2023-02-08T04:58:35;17.30;27.10
21085;DHT22;34247;50.064;19.970;2023-02-08T04:59:43;17.30;27.10
21085;DHT22;34247;50.064;19.970;2023-02-08T05:00:52;17.30;27.10
21085;DHT22;34247;50.064;19.970;2023-02-08T05:01:58;17.30;27.10
21085;DHT22;34247;50.064;19.970;2023-02-08T05:03:07;17.30;27.10
21085;DHT22;34247;50.064;19.970;2023-02-08T05:04:12;17.30;27.20
21085;DHT22;34247;50.064;19.970;2023-02-08T05:05:18;17.30;27.10
21085;DHT22;34247;50.064;19.970;2023-02-08T05:06:28;17.30;27.10
21085;DHT22;34247;50.064;19.970;2023-02-08T05:07:36;17.30;27.10
21085;DHT22;34247;50.064;19.970;2023-02-08T05:08:41;17.30;27.10
21085;DHT22;34247;50.064;19.970;2023-02-08T05:09:45;17.30;27.10
21085;DHT22;34247;50.064;19.970;2023-02-08T05:10:53;17.30;27.10
21085;DHT22;34247;50.064;19.970;2023-02-08T05:12:15;17.30;27.10
21085;DHT22;34247;50.064;19.970;2023-02-08T05:13:20;17.30;27.10
21085;DHT22;34247;50.064;19.970;2023-02-08T05:14:45;17.30;27.10
21085;DHT22;34247;50.064;19.970;2023-02-08T05:15:59;17.30;27.10
21085;DHT22;34247;50.064;19.970;2023-02-08T05:17:15;17.30;27.10
21085;DHT22;34247;50.064;19.970;2023-02-08T05:18:20;17.30;27.00
21085;DHT22;34247;50.064;19.970;2023-02-08T05:19:34;17.30;27.10
21085;DHT22;34247;50.064;19.970;2023-02-08T05:20:44;17.30;27.00
21085;DHT22;34247;50.064;19.970;2023-02-08T05:21:51;17.30;27.00
21085;DHT22;34247;50.064;19.970;2023-02-08T05:22:59;17.30;27.00
21085;DHT22;34247;50.064;19.970;2023-02-08T05:24:06;17.30;27.00
21085;DHT22;34247;50.064;19.970;2023-02-08T05:25:30;17.30;27.50
21085;DHT22;34247;50.064;19.970;2023-02-08T05:26:40;17.30;26.90
21085;DHT22;34247;50.064;19.970;2023-02-08T05:27:47;17.30;26.90
21085;DHT22;34247;50.064;19.970;2023-02-08T05:29:03;17.30;26.90
21085;DHT22;34247;50.064;19.970;2023-02-08T05:30:33;17.30;27.00
21085;DHT22;34247;50.064;19.970;2023-02-08T05:31:50;17.30;27.00
21085;DHT22;34247;50.064;19.970;2023-02-08T05:32:58;17.30;27.00
21085;DHT22;34247;50.064;19.970;2023-02-08T05:34:14;17.20;27.00
21085;DHT22;34247;50.064;19.970;2023-02-08T05:35:20;17.20;27.00
21085;DHT22;34247;50.064;19.970;2023-02-08T05:36:26;17.20;27.00
21085;DHT22;34247;50.064;19.970;2023-02-08T05:37:33;17.20;27.00
21085;DHT22;34247;50.064;19.970;2023-02-08T05:38:48;17.20;27.00
21085;DHT22;34247;50.064;19.970;2023-02-08T05:39:57;17.20;27.00
21085;DHT22;34247;50.064;19.970;2023-02-08T05:41:03;17.10;27.00
21085;DHT22;34247;50.064;19.970;2023-02-08T05:42:10;17.20;27.10
21085;DHT22;34247;50.064;19.970;2023-02-08T05:43:16;17.20;27.10
21085;DHT22;34247;50.064;19.970;2023-02-08T05:44:20;17.10;27.10
21085;DHT22;34247;50.064;19.970;2023-02-08T05:45:28;17.10;27.10
21085;DHT22;34247;50.064;19.970;2023-02-08T05:46:32;17.10;27.10
21085;DHT22;34247;50.064;19.970;2023-02-08T05:47:40;17.10;27.10
21085;DHT22;34247;50.064;19.970;2023-02-08T05:48:45;17.10;27.10
21085;DHT22;34247;50.064;19.970;2023-02-08T05:49:49;17.10;27.10
21085;DHT22;34247;50.064;19.970;2023-02-08T05:50:53;17.20;27.10
21085;DHT22;34247;50.064;19.970;2023-02-08T05:52:04;17.10;27.10
21085;DHT22;34247;50.064;19.970;2023-02-08T05:53:19;17.10;27.10
21085;DHT22;34247;50.064;19.970;2023-02-08T05:54:30;17.10;27.10
21085;DHT22;34247;50.064;19.970;2023-02-08T05:55:46;17.20;27.20
21085;DHT22;34247;50.064;19.970;2023-02-08T05:56:53;17.20;27.10
21085;DHT22;34247;50.064;19.970;2023-02-08T05:58:17;17.20;27.00
21085;DHT22;34247;50.064;19.970;2023-02-08T05:59:22;17.20;27.00
21085;DHT22;34247;50.064;19.970;2023-02-08T06:00:32;17.20;27.10
21085;DHT22;34247;50.064;19.970;2023-02-08T06:01:47;17.10;27.00
21085;DHT22;34247;50.064;19.970;2023-02-08T06:03:26;17.10;27.10
21085;DHT22;34247;50.064;19.970;2023-02-08T06:04:44;17.10;27.10
21085;DHT22;34247;50.064;19.970;2023-02-08T06:06:01;17.10;27.20
21085;DHT22;34247;50.064;19.970;2023-02-08T06:09:20;17.00;27.20
21085;DHT22;34247;50.064;19.970;2023-02-08T06:10:43;17.00;27.30
21085;DHT22;34247;50.064;19.970;2023-02-08T06:11:52;17.00;27.10
21085;DHT22;34247;50.064;19.970;2023-02-08T06:13:03;17.00;27.20
21085;DHT22;34247;50.064;19.970;2023-02-08T06:14:27;17.10;27.20
21085;DHT22;34247;50.064;19.970;2023-02-08T06:15:33;17.10;27.10
21085;DHT22;34247;50.064;19.970;2023-02-08T06:16:46;17.10;27.10
21085;DHT22;34247;50.064;19.970;2023-02-08T06:17:54;17.00;27.10
21085;DHT22;34247;50.064;19.970;2023-02-08T06:19:03;17.00;27.10
21085;DHT22;34247;50.064;19.970;2023-02-08T06:20:23;17.10;27.10
21085;DHT22;34247;50.064;19.970;2023-02-08T06:21:32;17.00;27.10
21085;DHT22;34247;50.064;19.970;2023-02-08T06:22:56;17.00;27.10
21085;DHT22;34247;50.064;19.970;2023-02-08T06:24:00;17.10;27.10
21085;DHT22;34247;50.064;19.970;2023-02-08T06:25:17;17.00;27.00
21085;DHT22;34247;50.064;19.970;2023-02-08T06:26:31;17.10;27.00
21085;DHT22;34247;50.064;19.970;2023-02-08T06:27:50;17.00;27.00
21085;DHT22;34247;50.064;19.970;2023-02-08T06:29:15;17.10;27.00
21085;DHT22;34247;50.064;19.970;2023-02-08T06:30:26;17.10;27.00
21085;DHT22;34247;50.064;19.970;2023-02-08T06:31:39;17.10;27.00
21085;DHT22;34247;50.064;19.970;2023-02-08T06:33:00;17.10;26.90
21085;DHT22;34247;50.064;19.970;2023-02-08T06:34:18;17.00;26.90
21085;DHT22;34247;50.064;19.970;2023-02-08T06:35:23;17.10;26.90
21085;DHT22;34247;50.064;19.970;2023-02-08T06:36:46;17.10;26.90
21085;DHT22;34247;50.064;19.970;2023-02-08T06:38:02;17.00;27.00
21085;DHT22;34247;50.064;19.970;2023-02-08T06:39:28;17.10;26.90
21085;DHT22;34247;50.064;19.970;2023-02-08T06:40:37;17.10;26.90
21085;DHT22;34247;50.064;19.970;2023-02-08T06:41:47;17.10;26.90
21085;DHT22;34247;50.064;19.970;2023-02-08T06:43:01;17.00;26.90
21085;DHT22;34247;50.064;19.970;2023-02-08T06:44:34;17.10;27.00
21085;DHT22;34247;50.064;19.970;2023-02-08T06:46:03;17.10;27.00
21085;DHT22;34247;50.064;19.970;2023-02-08T06:47:14;17.10;27.00
21085;DHT22;34247;50.064;19.970;2023-02-08T06:48:21;17.10;27.00
21085;DHT22;34247;50.064;19.970;2023-02-08T06:49:29;17.10;27.00
21085;DHT22;34247;50.064;19.970;2023-02-08T06:50:50;17.10;27.00
21085;DHT22;34247;50.064;19.970;2023-02-08T06:52:17;17.10;27.00
21085;DHT22;34247;50.064;19.970;2023-02-08T06:53:21;17.10;27.00
21085;DHT22;34247;50.064;19.970;2023-02-08T06:54:32;17.10;27.00
21085;DHT22;34247;50.064;19.970;2023-02-08T06:55:49;17.10;27.00
21085;DHT22;34247;50.064;19.970;2023-02-08T06:57:15;17.10;27.00
21085;DHT22;34247;50.064;19.970;2023-02-08T06:58:23;17.10;27.00
21085;DHT22;34247;50.064;19.970;2023-02-08T06:59:35;17.10;27.00
21085;DHT22;34247;50.064;19.970;2023-02-08T07:00:50;17.10;27.00
21085;DHT22;34247;50.064;19.970;2023-02-08T07:02:18;17.10;27.00
21085;DHT22;34247;50.064;19.970;2023-02-08T07:03:30;17.10;27.40
21085;DHT22;34247;50.064;19.970;2023-02-08T07:04:37;17.20;26.90
21085;DHT22;34247;50.064;19.970;2023-02-08T07:05:52;17.10;26.90
21085;DHT22;34247;50.064;19.970;2023-02-08T07:07:17;17.20;26.90
21085;DHT22;34247;50.064;19.970;2023-02-08T07:08:23;17.20;26.90
21085;DHT22;34247;50.064;19.970;2023-02-08T07:09:38;17.20;26.90
21085;DHT22;34247;50.064;19.970;2023-02-08T07:11:11;17.20;26.90
21085;DHT22;34247;50.064;19.970;2023-02-08T07:12:35;17.20;26.90
21085;DHT22;34247;50.064;19.970;2023-02-08T07:13:56;17.20;26.80
21085;DHT22;34247;50.064;19.970;2023-02-08T07:15:29;17.20;26.80
21085;DHT22;34247;50.064;19.970;2023-02-08T07:17:29;17.20;26.80
21085;DHT22;34247;50.064;19.970;2023-02-08T07:19:01;17.30;26.80
21085;DHT22;34247;50.064;19.970;2023-02-08T07:20:38;17.30;26.90
21085;DHT22;34247;50.064;19.970;2023-02-08T07:21:47;17.30;26.90
21085;DHT22;34247;50.064;19.970;2023-02-08T07:23:22;17.30;26.90
21085;DHT22;34247;50.064;19.970;2023-02-08T07:24:43;17.30;26.90
21085;DHT22;34247;50.064;19.970;2023-02-08T07:25:58;17.30;26.80
21085;DHT22;34247;50.064;19.970;2023-02-08T07:27:20;17.30;26.90
21085;DHT22;34247;50.064;19.970;2023-02-08T07:28:29;17.40;26.80
21085;DHT22;34247;50.064;19.970;2023-02-08T07:29:34;17.40;26.80
21085;DHT22;34247;50.064;19.970;2023-02-08T07:30:38;17.40;26.70
21085;DHT22;34247;50.064;19.970;2023-02-08T07:31:44;17.40;26.70
21085;DHT22;34247;50.064;19.970;2023-02-08T07:32:48;17.50;26.70
21085;DHT22;34247;50.064;19.970;2023-02-08T07:33:53;17.50;26.60
21085;DHT22;34247;50.064;19.970;2023-02-08T07:34:58;17.50;26.60
21085;DHT22;34247;50.064;19.970;2023-02-08T07:36:03;17.40;26.60
21085;DHT22;34247;50.064;19.970;2023-02-08T07:37:17;17.40;26.60
21085;DHT22;34247;50.064;19.970;2023-02-08T07:38:20;17.40;26.60
21085;DHT22;34247;50.064;19.970;2023-02-08T07:39:24;17.40;26.60
21085;DHT22;34247;50.064;19.970;2023-02-08T07:40:28;17.40;26.60
21085;DHT22;34247;50.064;19.970;2023-02-08T07:41:34;17.40;26.70
21085;DHT22;34247;50.064;19.970;2023-02-08T07:42:39;17.40;26.70
21085;DHT22;34247;50.064;19.970;2023-02-08T07:43:44;17.40;26.70
21085;DHT22;34247;50.064;19.970;2023-02-08T07:44:48;17.40;26.70
21085;DHT22;34247;50.064;19.970;2023-02-08T07:45:53;17.40;26.60
21085;DHT22;34247;50.064;19.970;2023-02-08T07:46:58;17.40;26.60
21085;DHT22;34247;50.064;19.970;2023-02-08T07:48:04;17.40;26.70
21085;DHT22;34247;50.064;19.970;2023-02-08T07:49:17;17.40;26.70
21085;DHT22;34247;50.064;19.970;2023-02-08T07:50:21;17.40;26.70
21085;DHT22;34247;50.064;19.970;2023-02-08T07:51:27;17.40;26.80
21085;DHT22;34247;50.064;19.970;2023-02-08T07:52:31;17.30;26.70
21085;DHT22;34247;50.064;19.970;2023-02-08T07:53:36;17.30;26.70
21085;DHT22;34247;50.064;19.970;2023-02-08T07:54:41;17.30;26.80
21085;DHT22;34247;50.064;19.970;2023-02-08T07:55:45;17.30;26.80
21085;DHT22;34247;50.064;19.970;2023-02-08T07:56:49;17.30;26.80
21085;DHT22;34247;50.064;19.970;2023-02-08T07:57:55;17.30;26.90
21085;DHT22;34247;50.064;19.970;2023-02-08T07:59:11;17.30;26.90
21085;DHT22;34247;50.064;19.970;2023-02-08T08:00:18;17.30;26.80
21085;DHT22;34247;50.064;19.970;2023-02-08T08:01:25;17.30;26.80
21085;DHT22;34247;50.064;19.970;2023-02-08T08:02:31;17.40;26.80
21085;DHT22;34247;50.064;19.970;2023-02-08T08:03:37;17.40;26.70
21085;DHT22;34247;50.064;19.970;2023-02-08T08:04:43;17.40;26.70
21085;DHT22;34247;50.064;19.970;2023-02-08T08:05:48;17.40;26.70
21085;DHT22;34247;50.064;19.970;2023-02-08T08:07:03;17.40;26.70
21085;DHT22;34247;50.064;19.970;2023-02-08T08:08:13;17.40;26.70
21085;DHT22;34247;50.064;19.970;2023-02-08T08:09:20;17.40;26.70
21085;DHT22;34247;50.064;19.970;2023-02-08T08:10:25;17.40;26.60
21085;DHT22;34247;50.064;19.970;2023-02-08T08:11:30;17.50;26.40
21085;DHT22;34247;50.064;19.970;2023-02-08T08:12:35;17.50;26.30
21085;DHT22;34247;50.064;19.970;2023-02-08T08:13:40;17.50;26.40
21085;DHT22;34247;50.064;19.970;2023-02-08T08:14:44;17.50;26.40
21085;DHT22;34247;50.064;19.970;2023-02-08T08:15:49;17.50;26.40
21085;DHT22;34247;50.064;19.970;2023-02-08T08:16:55;17.50;26.40
21085;DHT22;34247;50.064;19.970;2023-02-08T08:18:00;17.50;26.30
21085;DHT22;34247;50.064;19.970;2023-02-08T08:19:10;17.60;26.80
21085;DHT22;34247;50.064;19.970;2023-02-08T08:20:18;17.70;26.20
21085;DHT22;34247;50.064;19.970;2023-02-08T08:21:23;17.70;26.00